createdAt,value
2022-09-12T00:00:51.624Z,18.30
2022-09-12T00:03:19.532Z,18.30
2022-09-12T00:05:48.816Z,18.30
2022-09-12T00:08:16.633Z,18.30
2022-09-12T00:10:45.599Z,18.30
2022-09-12T00:13:13.641Z,18.30
2022-09-12T00:15:43.088Z,18.30
2022-09-12T00:18:16.224Z,18.30
2022-09-12T00:20:44.360Z,18.30
2022-09-12T00:23:12.808Z,18.30
2022-09-12T00:25:44.094Z,18.30
2022-09-12T00:28:12.540Z,18.30
2022-09-12T00:30:43.790Z,18.30
2022-09-12T00:33:13.111Z,18.20
2022-09-12T00:35:45.034Z,18.20
2022-09-12T00:38:13.742Z,18.20
2022-09-12T00:40:42.249Z,18.20
2022-09-12T00:43:14.888Z,18.10
2022-09-12T00:45:43.099Z,18.10
2022-09-12T00:48:22.522Z,18.10
2022-09-12T00:50:51.419Z,18.10
2022-09-12T00:53:19.552Z,18.10
2022-09-12T00:55:50.183Z,18.10
2022-09-12T00:58:22.891Z,18.00
2022-09-12T01:00:51.053Z,18.00
2022-09-12T01:03:22.984Z,18.00
2022-09-12T01:05:59.740Z,18.00
2022-09-12T01:08:29.475Z,18.00
2022-09-12T01:10:58.508Z,18.00
2022-09-12T01:13:26.965Z,17.90
2022-09-12T01:15:55.945Z,17.80
2022-09-12T01:18:33.207Z,17.80
2022-09-12T01:21:15.031Z,17.80
2022-09-12T01:24:16.157Z,17.70
2022-09-12T01:27:24.431Z,17.70
2022-09-12T01:30:05.834Z,17.70
2022-09-12T01:32:51.149Z,17.70
2022-09-12T01:35:24.407Z,17.70
2022-09-12T01:38:00.516Z,17.70
2022-09-12T01:40:36.863Z,17.60
2022-09-12T01:43:15.945Z,17.60
2022-09-12T01:45:48.371Z,17.60
2022-09-12T01:48:20.981Z,17.60
2022-09-12T01:50:53.498Z,17.60
2022-09-12T01:53:26.165Z,17.60
2022-09-12T01:55:58.936Z,17.60
2022-09-12T01:58:30.435Z,17.60
2022-09-12T02:01:04.533Z,17.60
2022-09-12T02:03:40.747Z,17.60
2022-09-12T02:06:15.432Z,17.50
2022-09-12T02:08:48.017Z,17.60
2022-09-12T02:11:15.995Z,17.50
2022-09-12T02:13:47.913Z,17.50
2022-09-12T02:16:20.524Z,17.50
2022-09-12T02:18:54.891Z,17.50
2022-09-12T02:21:25.525Z,17.40
2022-09-12T02:23:58.206Z,17.50
2022-09-12T02:26:30.484Z,17.40
2022-09-12T02:28:58.633Z,17.40
2022-09-12T02:31:31.675Z,17.40
2022-09-12T02:34:10.713Z,17.40
2022-09-12T02:36:51.047Z,17.30
2022-09-12T02:39:21.176Z,17.30
2022-09-12T02:41:52.161Z,17.30
2022-09-12T02:44:20.638Z,17.30
2022-09-12T02:46:52.513Z,17.30
2022-09-12T02:49:21.783Z,17.30
2022-09-12T02:51:50.302Z,17.30
2022-09-12T02:54:20.303Z,17.30
2022-09-12T02:56:48.130Z,17.30
2022-09-12T02:59:19.687Z,17.30
2022-09-12T03:02:01.198Z,17.30
2022-09-12T03:04:55.896Z,17.20
2022-09-12T03:07:42.499Z,17.20
2022-09-12T03:10:20.395Z,17.10
2022-09-12T03:13:00.423Z,17.10
2022-09-12T03:15:41.928Z,17.10
2022-09-12T03:18:24.347Z,17.10
2022-09-12T03:21:01.231Z,17.10
2022-09-12T03:23:34.318Z,17.10
2022-09-12T03:26:07.719Z,17.10
2022-09-12T03:28:36.572Z,17.10
2022-09-12T03:31:14.090Z,17.10
2022-09-12T03:33:42.017Z,17.10
2022-09-12T03:36:17.861Z,17.10
2022-09-12T03:38:45.782Z,17.10
2022-09-12T03:41:13.732Z,17.10
2022-09-12T03:43:41.594Z,17.00
2022-09-12T03:46:09.522Z,17.00
2022-09-12T03:48:37.676Z,17.00
2022-09-12T03:51:07.991Z,17.00
2022-09-12T03:53:37.310Z,17.00
2022-09-12T03:56:07.628Z,16.90
2022-09-12T03:58:36.459Z,16.90
2022-09-12T04:01:12.090Z,16.90
2022-09-12T04:03:40.925Z,16.90
2022-09-12T04:06:10.025Z,16.80
2022-09-12T04:08:39.718Z,16.70
2022-09-12T04:11:08.877Z,16.80
2022-09-12T04:13:37.827Z,16.70
2022-09-12T04:16:07.220Z,16.70
2022-09-12T04:18:35.967Z,16.70
2022-09-12T04:21:05.902Z,16.70
2022-09-12T04:23:33.852Z,16.70
2022-09-12T04:26:06.379Z,16.70
2022-09-12T04:28:35.532Z,16.70
2022-09-12T04:31:04.811Z,16.70
2022-09-12T04:33:32.780Z,16.70
2022-09-12T04:36:04.982Z,16.70
2022-09-12T04:38:32.985Z,16.70
2022-09-12T04:41:02.206Z,16.70
2022-09-12T04:43:30.028Z,16.70
2022-09-12T04:45:58.346Z,16.70
2022-09-12T04:48:26.935Z,16.70
2022-09-12T04:50:54.796Z,16.70
2022-09-12T04:53:22.668Z,16.70
2022-09-12T04:55:50.510Z,16.70
2022-09-12T04:58:19.742Z,16.70
2022-09-12T05:00:47.559Z,16.70
2022-09-12T05:03:15.380Z,16.70
2022-09-12T05:05:43.246Z,16.70
2022-09-12T05:08:11.285Z,16.70
2022-09-12T05:10:39.073Z,16.70
2022-09-12T05:13:06.850Z,16.60
2022-09-12T05:15:35.975Z,16.60
2022-09-12T05:18:03.836Z,16.60
2022-09-12T05:20:31.694Z,16.60
2022-09-12T05:22:59.686Z,16.60
2022-09-12T05:25:27.551Z,16.70
2022-09-12T05:27:55.411Z,16.60
2022-09-12T05:30:23.298Z,16.70
2022-09-12T05:32:52.497Z,16.70
2022-09-12T05:35:20.368Z,16.70
2022-09-12T05:37:48.195Z,16.70
2022-09-12T05:40:19.218Z,16.70
2022-09-12T05:42:47.029Z,16.80
2022-09-12T05:45:14.965Z,16.80
2022-09-12T05:47:43.803Z,16.80
2022-09-12T05:50:13.000Z,16.70
2022-09-12T05:52:40.955Z,16.70
2022-09-12T05:55:09.535Z,16.70
2022-09-12T05:57:37.473Z,16.70
2022-09-12T06:00:07.210Z,16.70
2022-09-12T06:02:35.616Z,16.80
2022-09-12T06:05:03.487Z,16.80
2022-09-12T06:07:32.906Z,16.70
2022-09-12T06:10:00.734Z,16.70
2022-09-12T06:12:30.200Z,16.70
2022-09-12T06:14:58.281Z,16.60
2022-09-12T06:17:26.463Z,16.70
2022-09-12T06:19:55.226Z,16.60
2022-09-12T06:22:23.058Z,16.70
2022-09-12T06:24:57.320Z,16.70
2022-09-12T06:27:25.744Z,16.70
2022-09-12T06:29:53.524Z,16.70
2022-09-12T06:32:21.344Z,16.80
2022-09-12T06:34:49.153Z,16.80
2022-09-12T06:37:16.971Z,16.90
2022-09-12T06:39:44.882Z,16.90
2022-09-12T06:42:14.800Z,17.00
2022-09-12T06:44:42.561Z,17.00
2022-09-12T06:47:10.416Z,17.10
2022-09-12T06:49:38.229Z,17.10
2022-09-12T06:52:07.191Z,17.20
2022-09-12T06:54:35.018Z,17.20
2022-09-12T06:57:02.965Z,17.20
2022-09-12T06:59:32.144Z,17.20
2022-09-12T07:02:00.023Z,17.20
2022-09-12T07:04:28.028Z,17.30
2022-09-12T07:06:55.891Z,17.40
2022-09-12T07:09:23.973Z,17.40
2022-09-12T07:11:51.797Z,17.40
2022-09-12T07:14:19.687Z,17.40
2022-09-12T07:16:48.909Z,17.50
2022-09-12T07:19:16.731Z,17.50
2022-09-12T07:21:44.618Z,17.60
2022-09-12T07:24:12.436Z,17.60
2022-09-12T07:26:42.081Z,17.70
2022-09-12T07:32:05.819Z,17.90
2022-09-12T07:34:34.483Z,17.90
2022-09-12T07:37:02.421Z,18.00
2022-09-12T07:39:30.264Z,18.10
2022-09-12T07:41:58.597Z,18.10
2022-09-12T07:44:26.909Z,18.20
2022-09-12T07:46:54.705Z,18.20
2022-09-12T07:49:23.995Z,18.30
2022-09-12T07:51:51.868Z,18.30
2022-09-12T07:54:19.747Z,18.20
2022-09-12T07:56:47.538Z,18.30
2022-09-12T07:59:29.967Z,18.30
2022-09-12T08:02:03.878Z,18.20
2022-09-12T08:04:33.055Z,18.30
2022-09-12T08:07:00.855Z,18.30
2022-09-12T08:09:28.697Z,18.40
2022-09-12T08:11:56.485Z,18.50
2022-09-12T08:14:24.386Z,18.60
2022-09-12T08:16:52.216Z,18.70
2022-09-12T08:19:22.622Z,18.70
2022-09-12T08:21:51.830Z,18.80
2022-09-12T08:24:19.631Z,18.90
2022-09-12T08:26:47.549Z,19.00
2022-09-12T08:29:15.504Z,19.00
2022-09-12T08:31:43.345Z,19.00
2022-09-12T08:34:11.187Z,19.10
2022-09-12T08:36:39.047Z,19.10
2022-09-12T08:39:08.918Z,19.10
2022-09-12T08:41:39.411Z,19.20
2022-09-12T08:44:25.485Z,19.20
2022-09-12T08:47:09.795Z,19.30
2022-09-12T08:49:43.471Z,19.30
2022-09-12T08:52:16.756Z,19.50
2022-09-12T08:54:46.578Z,19.60
2022-09-12T08:57:16.086Z,19.70
2022-09-12T08:59:46.071Z,19.90
2022-09-12T09:03:03.518Z,19.80
2022-09-12T09:05:43.161Z,20.00
2022-09-12T09:08:31.781Z,20.20
2022-09-12T09:11:09.751Z,20.30
2022-09-12T09:14:05.566Z,20.60
2022-09-12T09:16:36.193Z,20.70
2022-09-12T09:19:09.242Z,20.90
2022-09-12T09:21:42.299Z,21.00
2022-09-12T09:24:13.001Z,21.10
2022-09-12T09:26:48.079Z,21.10
2022-09-12T09:29:18.989Z,21.10
2022-09-12T09:31:49.847Z,21.20
2022-09-12T09:34:21.940Z,21.30
2022-09-12T09:36:52.582Z,21.30
2022-09-12T09:39:35.507Z,21.30
2022-09-12T09:42:19.472Z,21.20
2022-09-12T09:44:49.228Z,21.30
2022-09-12T09:47:18.784Z,21.40
2022-09-12T09:49:47.366Z,21.50
2022-09-12T09:52:17.997Z,21.70
2022-09-12T09:54:50.676Z,21.60
2022-09-12T09:57:42.566Z,21.60
2022-09-12T10:00:31.881Z,21.80
2022-09-12T10:03:18.812Z,22.10
2022-09-12T10:05:49.289Z,22.20
2022-09-12T10:08:24.838Z,22.30
2022-09-12T10:10:57.330Z,22.40
2022-09-12T10:13:40.473Z,22.50
2022-09-12T10:16:20.457Z,22.60
2022-09-12T10:18:49.244Z,22.70
2022-09-12T10:21:26.252Z,22.70
2022-09-12T10:24:01.477Z,22.70
2022-09-12T10:26:34.600Z,22.80
2022-09-12T10:29:12.378Z,22.90
2022-09-12T10:31:49.850Z,23.10
2022-09-12T10:34:25.432Z,23.30
2022-09-12T10:36:56.675Z,23.40
2022-09-12T10:39:24.570Z,23.70
2022-09-12T10:41:52.554Z,23.70
2022-09-12T10:44:27.900Z,23.90
2022-09-12T10:46:56.747Z,24.00
2022-09-12T10:49:28.277Z,24.10
2022-09-12T10:51:59.398Z,24.10
2022-09-12T10:54:28.580Z,24.20
2022-09-12T10:57:25.105Z,24.30
2022-09-12T11:00:06.891Z,24.40
2022-09-12T11:02:49.970Z,24.40
2022-09-12T11:05:36.526Z,24.40
2022-09-12T11:08:17.064Z,24.50
2022-09-12T11:10:51.615Z,24.60
2022-09-12T11:13:31.004Z,24.70
2022-09-12T11:16:18.496Z,24.80
2022-09-12T11:19:07.161Z,25.00
2022-09-12T11:21:51.483Z,25.30
2022-09-12T11:24:42.313Z,25.60
2022-09-12T11:27:28.675Z,26.10
2022-09-12T11:30:03.712Z,26.90
2022-09-12T11:32:52.126Z,28.70
2022-09-12T11:35:25.690Z,30.20
2022-09-12T11:38:10.778Z,31.90
2022-09-12T11:40:44.209Z,33.00
2022-09-12T11:43:24.127Z,34.00
2022-09-12T11:45:53.579Z,35.10
2022-09-12T11:48:33.367Z,35.60
2022-09-12T11:51:04.069Z,36.30
2022-09-12T11:53:37.311Z,37.00
2022-09-12T11:56:10.962Z,37.50
2022-09-12T11:58:41.572Z,37.90
2022-09-12T12:01:15.094Z,38.10
2022-09-12T12:03:46.256Z,38.60
2022-09-12T12:06:19.837Z,38.50
2022-09-12T12:08:48.971Z,39.30
2022-09-12T12:11:26.792Z,39.70
2022-09-12T12:13:58.467Z,40.20
2022-09-12T12:16:28.373Z,41.10
2022-09-12T12:19:00.190Z,40.50
2022-09-12T12:21:39.997Z,40.00
2022-09-12T12:24:17.898Z,39.20
2022-09-12T12:27:01.528Z,39.70
2022-09-12T12:29:43.934Z,39.80
2022-09-12T12:32:28.002Z,40.60
2022-09-12T12:35:40.750Z,41.20
2022-09-12T12:38:30.266Z,41.40
2022-09-12T12:41:31.496Z,41.70
2022-09-12T12:44:37.714Z,41.70
2022-09-12T12:47:16.104Z,42.30
2022-09-12T12:49:52.135Z,42.90
2022-09-12T12:52:21.692Z,42.70
2022-09-12T12:54:53.572Z,42.80
2022-09-12T12:57:30.523Z,42.10
2022-09-12T13:00:02.023Z,42.20
2022-09-12T13:02:35.038Z,42.90
2022-09-12T13:05:07.840Z,43.10
2022-09-12T13:07:40.561Z,42.60
2022-09-12T13:10:09.436Z,42.80
2022-09-12T13:12:44.338Z,42.60
2022-09-12T13:15:47.280Z,43.00
2022-09-12T13:18:20.619Z,43.40
2022-09-12T13:20:52.282Z,43.90
2022-09-12T13:23:27.598Z,43.40
2022-09-12T13:25:56.586Z,43.00
2022-09-12T13:28:26.276Z,43.20
2022-09-12T13:31:00.839Z,43.60
2022-09-12T13:33:35.825Z,44.50
2022-09-12T13:36:17.516Z,45.10
2022-09-12T13:38:58.758Z,44.90
2022-09-12T13:41:54.849Z,44.20
2022-09-12T13:44:24.077Z,43.20
2022-09-12T13:46:53.331Z,43.40
2022-09-12T13:49:28.394Z,43.80
2022-09-12T13:52:02.179Z,43.60
2022-09-12T13:54:32.970Z,44.10
2022-09-12T13:57:01.834Z,44.20
2022-09-12T13:59:29.763Z,44.20
2022-09-12T14:01:57.636Z,43.90
2022-09-12T14:04:45.253Z,43.80
2022-09-12T14:07:17.236Z,43.50
2022-09-12T14:09:53.429Z,43.80
2022-09-12T14:12:26.305Z,43.40
2022-09-12T14:14:54.857Z,42.90
2022-09-12T14:17:29.681Z,42.80
2022-09-12T14:19:59.325Z,42.00
2022-09-12T14:22:29.832Z,41.50
2022-09-12T14:25:00.791Z,41.10
2022-09-12T14:27:32.438Z,40.90
2022-09-12T14:30:03.710Z,40.50
2022-09-12T14:32:31.735Z,40.70
2022-09-12T14:35:07.225Z,39.90
2022-09-12T14:37:35.431Z,39.30
2022-09-12T14:40:05.495Z,39.40
2022-09-12T14:42:35.285Z,39.70
2022-09-12T14:45:14.101Z,39.70
2022-09-12T14:47:45.322Z,39.60
2022-09-12T14:50:18.418Z,39.00
2022-09-12T14:52:46.322Z,38.40
2022-09-12T14:55:30.144Z,37.90
2022-09-12T14:58:17.771Z,37.10
2022-09-12T15:00:57.027Z,35.70
2022-09-12T15:03:28.758Z,34.90
2022-09-12T15:05:56.935Z,34.20
2022-09-12T15:08:25.551Z,33.50
2022-09-12T15:10:58.204Z,33.10
2022-09-12T15:13:27.891Z,32.40
2022-09-12T15:15:57.561Z,32.00
2022-09-12T15:18:28.076Z,31.70
2022-09-12T15:20:58.668Z,31.40
2022-09-12T15:23:33.060Z,31.20
2022-09-12T15:26:02.693Z,30.70
2022-09-12T15:28:32.139Z,30.50
2022-09-12T15:31:06.659Z,30.40
2022-09-12T15:33:35.780Z,30.30
2022-09-12T15:36:03.908Z,30.10
2022-09-12T15:38:31.811Z,29.80
2022-09-12T15:41:00.035Z,29.60
2022-09-12T15:43:29.464Z,29.50
2022-09-12T15:45:59.033Z,29.40
2022-09-12T15:48:26.934Z,29.20
2022-09-12T15:50:55.709Z,29.00
2022-09-12T15:53:23.531Z,28.90
2022-09-12T15:55:51.370Z,28.70
2022-09-12T15:58:19.212Z,28.70
2022-09-12T16:00:48.583Z,28.60
2022-09-12T16:03:23.124Z,28.50
2022-09-12T16:05:51.287Z,28.30
2022-09-12T16:08:19.163Z,28.30
2022-09-12T16:10:48.965Z,28.10
2022-09-12T16:13:16.823Z,28.00
2022-09-12T16:15:44.734Z,28.00
2022-09-12T16:18:14.106Z,27.90
2022-09-12T16:20:42.034Z,27.80
2022-09-12T16:23:12.448Z,27.70
2022-09-12T16:25:40.297Z,27.60
2022-09-12T16:28:08.310Z,27.50
2022-09-12T16:30:36.958Z,27.50
2022-09-12T16:33:05.265Z,27.40
2022-09-12T16:35:34.701Z,27.30
2022-09-12T16:38:02.591Z,27.30
2022-09-12T16:40:31.013Z,27.40
2022-09-12T16:42:58.855Z,27.30
2022-09-12T16:45:26.758Z,27.20
2022-09-12T16:47:54.776Z,27.10
2022-09-12T16:50:22.726Z,26.90
2022-09-12T16:52:51.860Z,26.80
2022-09-12T16:55:19.756Z,26.80
2022-09-12T16:57:49.330Z,26.70
2022-09-12T17:00:19.277Z,26.70
2022-09-12T17:02:47.586Z,26.50
2022-09-12T17:05:16.438Z,26.40
2022-09-12T17:07:45.359Z,26.40
2022-09-12T17:10:14.550Z,26.30
2022-09-12T17:12:42.394Z,26.20
2022-09-12T17:15:10.454Z,26.10
2022-09-12T17:17:38.283Z,26.00
2022-09-12T17:20:06.716Z,26.00
2022-09-12T17:22:34.913Z,25.90
2022-09-12T17:25:02.756Z,25.80
2022-09-12T17:27:31.990Z,25.80
2022-09-12T17:29:59.802Z,25.70
2022-09-12T17:32:27.601Z,25.70
2022-09-12T17:34:55.409Z,25.70
2022-09-12T17:37:23.247Z,25.60
2022-09-12T17:39:51.475Z,25.60
2022-09-12T17:42:20.073Z,25.50
2022-09-12T17:44:50.360Z,25.50
2022-09-12T17:47:18.224Z,25.40
2022-09-12T17:49:46.055Z,25.40
2022-09-12T17:52:13.842Z,25.40
2022-09-12T17:54:41.659Z,25.40
2022-09-12T17:57:09.507Z,25.40
2022-09-12T17:59:37.372Z,25.40
2022-09-12T18:02:15.984Z,25.30
2022-09-12T18:04:46.178Z,25.30
2022-09-12T18:07:14.054Z,25.20
2022-09-12T18:09:42.105Z,25.20
2022-09-12T18:12:10.233Z,25.10
2022-09-12T18:14:38.606Z,25.10
2022-09-12T18:17:08.665Z,25.00
2022-09-12T18:19:36.807Z,24.90
2022-09-12T18:22:05.860Z,24.90
2022-09-12T18:24:33.885Z,24.80
2022-09-12T18:27:01.806Z,24.80
2022-09-12T18:29:29.984Z,24.70
2022-09-12T18:31:58.010Z,24.60
2022-09-12T18:34:27.247Z,24.50
2022-09-12T18:36:55.860Z,24.40
2022-09-12T18:39:27.502Z,24.30
2022-09-12T18:41:55.941Z,24.20
2022-09-12T18:44:23.820Z,24.20
2022-09-12T18:46:51.670Z,24.10
2022-09-12T18:49:19.538Z,24.00
2022-09-12T18:51:48.750Z,23.90
2022-09-12T18:54:17.724Z,23.80
2022-09-12T18:56:45.815Z,23.70
2022-09-12T18:59:14.822Z,23.60
2022-09-12T19:01:43.808Z,23.60
2022-09-12T19:04:13.022Z,23.50
2022-09-12T19:06:42.190Z,23.30
2022-09-12T19:09:13.155Z,23.20
2022-09-12T19:11:48.506Z,23.10
2022-09-12T19:14:16.471Z,22.90
2022-09-12T19:16:44.328Z,22.80
2022-09-12T19:19:12.195Z,22.80
2022-09-12T19:21:40.059Z,22.70
2022-09-12T19:24:10.198Z,22.60
2022-09-12T19:26:40.564Z,22.60
2022-09-12T19:29:09.233Z,22.60
2022-09-12T19:31:37.147Z,22.50
2022-09-12T19:34:06.883Z,22.50
2022-09-12T19:36:50.688Z,22.40
2022-09-12T19:39:20.175Z,22.40
2022-09-12T19:41:49.348Z,22.40
2022-09-12T19:44:19.041Z,22.40
2022-09-12T19:46:46.888Z,22.40
2022-09-12T19:49:14.873Z,22.50
2022-09-12T19:51:43.759Z,22.40
2022-09-12T19:54:11.699Z,22.40
2022-09-12T19:56:39.509Z,22.40
2022-09-12T19:59:09.563Z,22.30
2022-09-12T20:01:37.983Z,22.30
2022-09-12T20:04:06.626Z,22.20
2022-09-12T20:06:34.477Z,22.20
2022-09-12T20:09:02.454Z,22.10
2022-09-12T20:11:31.042Z,22.10
2022-09-12T20:13:58.898Z,22.10
2022-09-12T20:16:30.180Z,22.10
2022-09-12T20:19:00.867Z,22.10
2022-09-12T20:21:34.087Z,22.00
2022-09-12T20:24:03.476Z,22.00
2022-09-12T20:26:31.676Z,22.00
2022-09-12T20:29:00.159Z,22.00
2022-09-12T20:31:30.084Z,22.00
2022-09-12T20:33:58.110Z,22.00
2022-09-12T20:36:26.385Z,22.00
2022-09-12T20:38:57.705Z,21.90
2022-09-12T20:41:27.149Z,21.90
2022-09-12T20:43:57.489Z,21.90
2022-09-12T20:46:26.428Z,21.80
2022-09-12T20:48:55.785Z,21.80
2022-09-12T20:51:26.463Z,21.80
2022-09-12T20:53:55.519Z,21.80
2022-09-12T20:56:24.244Z,21.80
2022-09-12T20:58:52.602Z,21.80
2022-09-12T21:01:21.151Z,21.80
2022-09-12T21:03:49.633Z,21.70
2022-09-12T21:06:19.666Z,21.70
2022-09-12T21:08:48.677Z,21.70
2022-09-12T21:11:17.535Z,21.70
2022-09-12T21:13:45.791Z,21.60
2022-09-12T21:16:15.879Z,21.60
2022-09-12T21:18:43.926Z,21.50
2022-09-12T21:21:12.980Z,21.50
2022-09-12T21:23:42.952Z,21.50
2022-09-12T21:26:10.911Z,21.40
2022-09-12T21:28:38.755Z,21.30
2022-09-12T21:31:06.935Z,21.20
2022-09-12T21:33:34.896Z,21.20
2022-09-12T21:36:04.141Z,21.20
2022-09-12T21:38:32.405Z,21.10
2022-09-12T21:41:09.945Z,21.10
2022-09-12T21:43:38.547Z,21.10
2022-09-12T21:46:07.576Z,21.10
2022-09-12T21:48:35.893Z,21.10
2022-09-12T21:51:04.339Z,21.10
2022-09-12T21:53:32.160Z,21.00
2022-09-12T21:56:03.682Z,21.00
2022-09-12T21:58:32.882Z,21.00
2022-09-12T22:01:01.249Z,20.90
2022-09-12T22:03:29.564Z,20.90
2022-09-12T22:06:02.393Z,20.90
2022-09-12T22:08:32.177Z,20.90
2022-09-12T22:11:01.975Z,20.90
2022-09-12T22:13:31.327Z,20.80
2022-09-12T22:16:02.818Z,20.80
2022-09-12T22:18:32.867Z,20.80
2022-09-12T22:21:02.266Z,20.80
2022-09-12T22:23:47.962Z,20.80
2022-09-12T22:26:15.951Z,20.80
2022-09-12T22:28:44.451Z,20.90
2022-09-12T22:31:14.365Z,20.80
2022-09-12T22:33:42.286Z,20.90
2022-09-12T22:36:10.774Z,20.80
2022-09-12T22:38:39.186Z,20.90
2022-09-12T22:41:09.087Z,20.90
2022-09-12T22:43:37.738Z,20.80
2022-09-12T22:46:07.942Z,20.80
2022-09-12T22:48:37.825Z,20.80
2022-09-12T22:51:06.099Z,20.70
2022-09-12T22:53:34.165Z,20.70
2022-09-12T22:56:02.396Z,20.70
2022-09-12T22:58:30.271Z,20.70
2022-09-12T23:00:58.126Z,20.70
2022-09-12T23:03:26.785Z,20.70
2022-09-12T23:05:56.015Z,20.60
2022-09-12T23:08:23.894Z,20.60
2022-09-12T23:10:51.758Z,20.60
2022-09-12T23:13:19.583Z,20.60
2022-09-12T23:15:47.651Z,20.50
2022-09-12T23:18:15.481Z,20.50
2022-09-12T23:20:43.363Z,20.40
2022-09-12T23:23:12.593Z,20.40
2022-09-12T23:25:40.482Z,20.40
2022-09-12T23:28:08.289Z,20.40
2022-09-12T23:30:37.935Z,20.30
2022-09-12T23:33:05.802Z,20.30
2022-09-12T23:35:33.634Z,20.30
2022-09-12T23:38:01.530Z,20.20
2022-09-12T23:40:30.696Z,20.20
2022-09-12T23:42:58.775Z,20.20
2022-09-12T23:45:26.586Z,20.20
2022-09-12T23:47:54.464Z,20.10
2022-09-12T23:50:22.323Z,20.10
2022-09-12T23:52:50.197Z,20.10
2022-09-12T23:55:18.000Z,20.10
2022-09-12T23:57:47.192Z,20.10
